Time,TemperatureF,DewpointF,PressureIn,WindDirection,WindDirectionDegrees,WindSpeedMPH,WindSpeedGustMPH,Humidity,HourlyPrecipIn,Conditions,Clouds,dailyrainin,SoftwareType,DateUTC
2013-02-21 00:06:00,38.8,10.0,30.10,NE,50,0.0,1.0,31,0.00,,,0.00,weatherlink.com 1.10,2013-02-21 05:06:00,
2013-02-21 00:21:00,37.8,11.0,30.11,NE,50,0.0,0.0,33,0.00,,,0.00,weatherlink.com 1.10,2013-02-21 05:21:00,
2013-02-21 00:36:00,36.6,14.0,30.12,NE,50,0.0,0.0,39,0.00,,,0.00,weatherlink.com 1.10,2013-02-21 05:36:00,
2013-02-21 00:51:00,35.8,13.0,30.11,East,80,0.0,0.0,39,0.00,,,0.00,weatherlink.com 1.10,2013-02-21 05:51:00,
2013-02-21 01:06:00,34.7,15.0,30.12,East,80,0.0,0.0,44,0.00,,,0.00,weatherlink.com 1.10,2013-02-21 06:06:00,
2013-02-21 01:21:00,33.8,17.0,30.13,East,80,0.0,0.0,50,0.00,,,0.00,weatherlink.com 1.10,2013-02-21 06:21:00,
2013-02-21 01:36:00,33.1,18.0,30.13,East,80,0.0,0.0,54,0.00,,,0.00,weatherlink.com 1.10,2013-02-21 06:36:00,
2013-02-21 01:51:00,32.4,19.0,30.13,East,80,0.0,0.0,59,0.00,,,0.00,weatherlink.com 1.10,2013-02-21 06:51:00,
2013-02-21 02:06:00,31.3,19.0,30.13,East,80,0.0,0.0,60,0.00,,,0.00,weatherlink.com 1.10,2013-02-21 07:06:00,
2013-02-21 02:21:00,30.7,19.0,30.12,East,80,0.0,0.0,62,0.00,,,0.00,weatherlink.com 1.10,2013-02-21 07:21:00,
2013-02-21 02:36:00,30.6,19.0,30.12,East,80,0.0,0.0,63,0.00,,,0.00,weatherlink.com 1.10,2013-02-21 07:36:00,
2013-02-21 02:51:00,30.4,18.0,30.13,East,80,0.0,0.0,61,0.00,,,0.00,weatherlink.com 1.10,2013-02-21 07:51:00,
2013-02-21 03:06:00,30.1,20.0,30.13,East,80,0.0,0.0,65,0.00,,,0.00,weatherlink.com 1.10,2013-02-21 08:06:00,
2013-02-21 03:21:00,29.8,20.0,30.13,East,80,0.0,0.0,67,0.00,,,0.00,weatherlink.com 1.10,2013-02-21 08:21:00,
2013-02-21 03:36:00,29.4,19.0,30.14,East,80,0.0,0.0,66,0.00,,,0.00,weatherlink.com 1.10,2013-02-21 08:36:00,
2013-02-21 03:51:00,29.1,20.0,30.14,East,80,0.0,0.0,68,0.00,,,0.00,weatherlink.com 1.10,2013-02-21 08:51:00,
2013-02-21 04:06:00,28.8,19.0,30.15,East,80,0.0,0.0,67,0.00,,,0.00,weatherlink.com 1.10,2013-02-21 09:06:00,
2013-02-21 04:21:00,28.5,19.0,30.15,East,80,0.0,0.0,67,0.00,,,0.00,weatherlink.com 1.10,2013-02-21 09:21:00,
2013-02-21 04:36:00,28.2,19.0,30.14,East,80,0.0,0.0,68,0.00,,,0.00,weatherlink.com 1.10,2013-02-21 09:36:00,
2013-02-21 04:51:00,28.4,20.0,30.14,East,80,0.0,0.0,71,0.00,,,0.00,weatherlink.com 1.10,2013-02-21 09:51:00,
2013-02-21 05:06:00,28.2,20.0,30.15,East,80,0.0,0.0,70,0.00,,,0.00,weatherlink.com 1.10,2013-02-21 10:06:00,
2013-02-21 05:21:00,27.9,20.0,30.15,East,80,0.0,0.0,72,0.00,,,0.00,weatherlink.com 1.10,2013-02-21 10:21:00,
2013-02-21 05:36:00,27.9,19.0,30.15,East,80,0.0,0.0,69,0.00,,,0.00,weatherlink.com 1.10,2013-02-21 10:36:00,
2013-02-21 05:51:00,27.8,20.0,30.16,East,80,0.0,0.0,72,0.00,,,0.00,weatherlink.com 1.10,2013-02-21 10:51:00,
2013-02-21 06:06:00,27.5,19.0,30.17,East,80,0.0,0.0,71,0.00,,,0.00,weatherlink.com 1.10,2013-02-21 11:06:00,
2013-02-21 06:21:00,27.3,19.0,30.17,East,80,0.0,0.0,71,0.00,,,0.00,weatherlink.com 1.10,2013-02-21 11:21:00,
2013-02-21 06:36:00,27.2,19.0,30.17,East,80,0.0,0.0,72,0.00,,,0.00,weatherlink.com 1.10,2013-02-21 11:36:00,
2013-02-21 06:51:00,27.2,20.0,30.18,East,80,0.0,0.0,74,0.00,,,0.00,weatherlink.com 1.10,2013-02-21 11:51:00,
2013-02-21 07:06:00,27.2,20.0,30.19,East,80,0.0,0.0,74,0.00,,,0.00,weatherlink.com 1.10,2013-02-21 12:06:00,
2013-02-21 07:21:00,27.2,20.0,30.19,East,80,0.0,0.0,73,0.00,,,0.00,weatherlink.com 1.10,2013-02-21 12:21:00,
2013-02-21 07:36:00,27.2,20.0,30.20,East,80,0.0,0.0,74,0.00,,,0.00,weatherlink.com 1.10,2013-02-21 12:36:00,
2013-02-21 07:51:00,28.1,20.0,30.20,East,80,0.0,0.0,73,0.00,,,0.00,weatherlink.com 1.10,2013-02-21 12:51:00,
2013-02-21 08:06:00,29.8,19.0,30.20,ESE,115,0.0,0.0,65,0.00,,,0.00,weatherlink.com 1.10,2013-02-21 13:06:00,
2013-02-21 08:21:00,33.2,15.0,30.21,ENE,76,0.0,1.0,47,0.00,,,0.00,weatherlink.com 1.10,2013-02-21 13:21:00,
2013-02-21 08:37:00,36.8,15.0,30.21,SE,131,0.0,1.0,41,0.00,,,0.00,weatherlink.com 1.10,2013-02-21 13:37:00,
2013-02-21 08:52:00,38.6,15.0,30.23,ESE,115,0.0,3.0,38,0.00,,,0.00,weatherlink.com 1.10,2013-02-21 13:52:00,
2013-02-21 09:07:00,39.9,13.0,30.23,ENE,76,0.0,3.0,34,0.00,,,0.00,weatherlink.com 1.10,2013-02-21 14:07:00,
2013-02-21 09:22:00,39.6,12.0,30.23,ESE,117,3.0,5.0,32,0.00,,,0.00,weatherlink.com 1.10,2013-02-21 14:22:00,
2013-02-21 09:37:00,40.8,12.0,30.22,ENE,63,0.0,3.0,31,0.00,,,0.00,weatherlink.com 1.10,2013-02-21 14:37:00,
2013-02-21 09:52:00,41.6,11.0,30.21,East,82,0.0,3.0,29,0.00,,,0.00,weatherlink.com 1.10,2013-02-21 14:52:00,
2013-02-21 10:07:00,43.2,12.0,30.21,ESE,108,3.0,5.0,28,0.00,,,0.00,weatherlink.com 1.10,2013-02-21 15:07:00,
2013-02-21 10:22:00,44.1,13.0,30.21,SE,144,2.0,2.0,28,0.00,,,0.00,weatherlink.com 1.10,2013-02-21 15:22:00,
2013-02-21 10:37:00,44.5,13.0,30.22,ENE,73,0.0,2.0,28,0.00,,,0.00,weatherlink.com 1.10,2013-02-21 15:37:00,
2013-02-21 10:52:00,45.7,14.0,30.21,NE,44,0.0,2.0,28,0.00,,,0.00,weatherlink.com 1.10,2013-02-21 15:52:00,
2013-02-21 11:07:00,46.5,14.0,30.21,SSW,208,0.0,4.0,27,0.00,,,0.00,weatherlink.com 1.10,2013-02-21 16:07:00,
2013-02-21 11:22:00,48.3,13.0,30.21,ENE,63,0.0,4.0,24,0.00,,,0.00,weatherlink.com 1.10,2013-02-21 16:22:00,
2013-02-21 11:37:00,48.2,14.0,30.20,NNW,338,2.0,3.0,25,0.00,,,0.00,weatherlink.com 1.10,2013-02-21 16:37:00,
2013-02-21 11:52:00,49.2,14.0,30.20,ENE,71,0.0,3.0,24,0.00,,,0.00,weatherlink.com 1.10,2013-02-21 16:52:00,
2013-02-21 12:07:00,50.1,14.0,30.19,SSW,212,1.0,3.0,24,0.00,,,0.00,weatherlink.com 1.10,2013-02-21 17:07:00,
2013-02-21 12:22:00,52.6,13.0,30.18,SW,229,0.0,2.0,21,0.00,,,0.00,weatherlink.com 1.10,2013-02-21 17:22:00,
2013-02-21 12:37:00,53.3,14.0,30.18,South,190,0.0,3.0,21,0.00,,,0.00,weatherlink.com 1.10,2013-02-21 17:37:00,
2013-02-21 12:52:00,54.7,14.0,30.16,NNE,23,0.0,3.0,20,0.00,,,0.00,weatherlink.com 1.10,2013-02-21 17:52:00,
2013-02-21 13:07:00,53.9,15.0,30.15,West,277,0.0,6.0,21,0.00,,,0.00,weatherlink.com 1.10,2013-02-21 18:07:00,
2013-02-21 13:22:00,54.8,14.0,30.15,ESE,103,0.0,4.0,20,0.00,,,0.00,weatherlink.com 1.10,2013-02-21 18:22:00,
2013-02-21 13:37:00,54.7,17.0,30.13,SSE,163,0.0,4.0,23,0.00,,,0.00,weatherlink.com 1.10,2013-02-21 18:37:00,
2013-02-21 13:52:00,55.9,14.0,30.12,ESE,119,0.0,5.0,19,0.00,,,0.00,weatherlink.com 1.10,2013-02-21 18:52:00,
2013-02-21 14:07:00,55.3,16.0,30.11,South,173,1.0,6.0,21,0.00,,,0.00,weatherlink.com 1.10,2013-02-21 19:07:00,
2013-02-21 14:22:00,55.3,16.0,30.10,ESE,114,0.0,3.0,21,0.00,,,0.00,weatherlink.com 1.10,2013-02-21 19:22:00,
2013-02-21 14:37:00,56.0,14.0,30.10,West,279,0.0,3.0,19,0.00,,,0.00,weatherlink.com 1.10,2013-02-21 19:37:00,
2013-02-21 14:52:00,55.6,16.0,30.10,South,169,0.0,4.0,21,0.00,,,0.00,weatherlink.com 1.10,2013-02-21 19:52:00,
2013-02-21 15:07:00,55.9,14.0,30.10,ESE,111,0.0,2.0,19,0.00,,,0.00,weatherlink.com 1.10,2013-02-21 20:07:00,
2013-02-21 15:22:00,56.0,16.0,30.10,NW,317,0.0,5.0,21,0.00,,,0.00,weatherlink.com 1.10,2013-02-21 20:22:00,
2013-02-21 15:37:00,56.3,17.0,30.10,West,278,0.0,2.0,21,0.00,,,0.00,weatherlink.com 1.10,2013-02-21 20:37:00,
2013-02-21 15:52:00,56.7,15.0,30.11,West,271,0.0,2.0,19,0.00,,,0.00,weatherlink.com 1.10,2013-02-21 20:52:00,
2013-02-21 16:07:00,57.2,16.0,30.12,SW,214,0.0,3.0,20,0.00,,,0.00,weatherlink.com 1.10,2013-02-21 21:07:00,
2013-02-21 16:22:00,57.2,15.0,30.12,SSE,159,0.0,1.0,19,0.00,,,0.00,weatherlink.com 1.10,2013-02-21 21:22:00,
2013-02-21 16:37:00,56.9,19.0,30.11,South,186,0.0,2.0,23,0.00,,,0.00,weatherlink.com 1.10,2013-02-21 21:37:00,
2013-02-21 16:52:00,56.3,19.0,30.10,South,186,0.0,0.0,23,0.00,,,0.00,weatherlink.com 1.10,2013-02-21 21:52:00,
2013-02-21 17:07:00,56.0,18.0,30.10,South,186,0.0,1.0,23,0.00,,,0.00,weatherlink.com 1.10,2013-02-21 22:07:00,
2013-02-21 17:22:00,55.3,18.0,30.10,South,186,0.0,0.0,23,0.00,,,0.00,weatherlink.com 1.10,2013-02-21 22:22:00,
2013-02-21 17:37:00,55.0,20.0,30.11,South,186,0.0,0.0,25,0.00,,,0.00,weatherlink.com 1.10,2013-02-21 22:37:00,
2013-02-21 17:52:00,54.4,20.0,30.11,South,186,0.0,0.0,26,0.00,,,0.00,weatherlink.com 1.10,2013-02-21 22:52:00,
2013-02-21 18:08:00,53.3,21.0,30.11,South,186,0.0,1.0,28,0.00,,,0.00,weatherlink.com 1.10,2013-02-21 23:08:00,
2013-02-21 18:23:00,52.6,20.0,30.12,ESE,114,0.0,2.0,28,0.00,,,0.00,weatherlink.com 1.10,2013-02-21 23:23:00,
2013-02-21 18:38:00,51.7,21.0,30.12,ESE,114,0.0,1.0,30,0.00,,,0.00,weatherlink.com 1.10,2013-02-21 23:38:00,
2013-02-21 18:53:00,51.3,22.0,30.13,ESE,114,0.0,1.0,32,0.00,,,0.00,weatherlink.com 1.10,2013-02-21 23:53:00,
2013-02-21 19:08:00,50.7,22.0,30.13,ESE,114,0.0,0.0,32,0.00,,,0.00,weatherlink.com 1.10,2013-02-22 00:08:00,
2013-02-21 19:23:00,50.1,23.0,30.13,ESE,114,0.0,0.0,34,0.00,,,0.00,weatherlink.com 1.10,2013-02-22 00:23:00,
2013-02-21 19:38:00,49.6,23.0,30.13,ESE,114,1.0,1.0,36,0.00,,,0.00,weatherlink.com 1.10,2013-02-22 00:38:00,
2013-02-21 19:53:00,49.5,22.0,30.13,ESE,114,0.0,0.0,34,0.00,,,0.00,weatherlink.com 1.10,2013-02-22 00:53:00,
2013-02-21 20:08:00,49.1,21.0,30.13,ESE,114,0.0,0.0,33,0.00,,,0.00,weatherlink.com 1.10,2013-02-22 01:08:00,
2013-02-21 20:23:00,48.8,23.0,30.13,ESE,114,0.0,0.0,36,0.00,,,0.00,weatherlink.com 1.10,2013-02-22 01:23:00,
2013-02-21 20:38:00,48.3,24.0,30.14,ESE,114,0.0,0.0,38,0.00,,,0.00,weatherlink.com 1.10,2013-02-22 01:38:00,
2013-02-21 20:53:00,47.7,23.0,30.14,ESE,114,0.0,0.0,38,0.00,,,0.00,weatherlink.com 1.10,2013-02-22 01:53:00,
2013-02-21 21:08:00,47.6,23.0,30.14,ESE,114,0.0,0.0,38,0.00,,,0.00,weatherlink.com 1.10,2013-02-22 02:08:00,
2013-02-21 21:23:00,47.9,23.0,30.14,ESE,114,0.0,1.0,37,0.00,,,0.00,weatherlink.com 1.10,2013-02-22 02:23:00,
2013-02-21 21:38:00,48.6,22.0,30.16,ESE,115,0.0,1.0,35,0.00,,,0.00,weatherlink.com 1.10,2013-02-22 02:38:00,
2013-02-21 22:08:00,48.3,28.0,30.21,ESE,115,0.0,0.0,45,0.00,,,0.00,weatherlink.com 1.10,2013-02-22 03:08:00,
2013-02-21 22:23:00,47.7,29.0,30.21,ESE,115,0.0,0.0,48,0.00,,,0.00,weatherlink.com 1.10,2013-02-22 03:23:00,
2013-02-21 22:38:00,47.0,31.0,30.18,ESE,115,0.0,0.0,55,0.00,,,0.00,weatherlink.com 1.10,2013-02-22 03:38:00,
2013-02-21 22:53:00,46.4,33.0,30.18,ESE,115,0.0,0.0,60,0.00,,,0.00,weatherlink.com 1.10,2013-02-22 03:53:00,
2013-02-21 23:08:00,46.1,33.0,30.19,ESE,115,0.0,0.0,61,0.00,,,0.00,weatherlink.com 1.10,2013-02-22 04:08:00,
2013-02-21 23:23:00,46.0,31.0,30.20,ESE,115,0.0,1.0,57,0.00,,,0.00,weatherlink.com 1.10,2013-02-22 04:23:00,
2013-02-21 23:38:00,46.2,27.0,30.22,East,96,0.0,2.0,48,0.00,,,0.00,weatherlink.com 1.10,2013-02-22 04:38:00,
2013-02-21 23:53:00,47.0,26.0,30.24,East,92,0.0,1.0,45,0.00,,,0.00,weatherlink.com 1.10,2013-02-22 04:53:00,